Time,TemperatureF,DewpointF,PressureIn,WindDirection,WindDirectionDegrees,WindSpeedMPH,WindSpeedGustMPH,Humidity,HourlyPrecipIn,Conditions,Clouds,dailyrainin,SolarRadiationWatts/m^2,SoftwareType,DateUTC
2013-07-24 00:02:00,62.8,57.9,30.01,NE,53,2.0,4.0,84,0.00,,CLR,0.00,0.00,VWS V14.01,2013-07-24 05:02:00,
2013-07-24 00:07:00,62.8,57.9,30.01,NE,46,2.0,3.0,84,0.00,,CLR,0.00,0.00,VWS V14.01,2013-07-24 05:07:00,
2013-07-24 00:12:00,62.5,57.6,30.01,NNE,33,1.0,3.0,84,0.00,,CLR,0.00,0.00,VWS V14.01,2013-07-24 05:12:00,
2013-07-24 00:17:00,62.4,57.5,30.01,NE,35,2.0,3.0,84,0.00,,CLR,0.00,0.00,VWS V14.01,2013-07-24 05:17:00,
2013-07-24 00:22:00,62.1,57.2,30.02,NE,35,2.0,3.0,84,0.00,,CLR,0.00,0.00,VWS V14.01,2013-07-24 05:22:00,
2013-07-24 00:27:00,61.9,57.3,30.02,NNE,26,3.0,4.0,85,0.00,,CLR,0.00,0.00,VWS V14.01,2013-07-24 05:27:00,
2013-07-24 00:32:00,61.8,57.2,30.02,North,360,3.0,5.0,85,0.00,,CLR,0.00,0.00,VWS V14.01,2013-07-24 05:32:00,
2013-07-24 00:37:00,61.8,57.2,30.02,NNE,31,2.0,5.0,85,0.00,,CLR,0.00,0.00,VWS V14.01,2013-07-24 05:37:00,
2013-07-24 00:42:00,61.5,57.0,30.02,NNE,31,4.0,5.0,85,0.00,,CLR,0.00,0.00,VWS V14.01,2013-07-24 05:42:00,
2013-07-24 00:47:00,61.5,57.3,30.02,NE,45,0.0,5.0,86,0.00,,CLR,0.00,0.00,VWS V14.01,2013-07-24 05:47:00,
2013-07-24 00:52:00,61.7,57.2,30.02,North,10,1.0,3.0,85,0.00,,CLR,0.00,0.00,VWS V14.01,2013-07-24 05:52:00,
2013-07-24 00:57:00,61.6,57.0,30.02,North,10,0.0,1.0,85,0.00,,CLR,0.00,0.00,VWS V14.01,2013-07-24 05:57:00,
2013-07-24 01:02:00,60.8,56.3,30.02,North,10,0.0,1.0,85,0.00,,CLR,0.00,0.00,VWS V14.01,2013-07-24 06:02:00,
2013-07-24 01:07:00,60.5,56.6,30.02,North,10,0.0,1.0,87,0.00,,CLR,0.00,0.00,VWS V14.01,2013-07-24 06:07:00,
2013-07-24 01:12:00,60.3,56.4,30.02,North,10,0.0,0.0,87,0.00,,CLR,0.00,0.00,VWS V14.01,2013-07-24 06:12:00,
2013-07-24 01:17:00,60.2,56.6,30.02,North,10,0.0,0.0,88,0.00,,CLR,0.00,0.00,VWS V14.01,2013-07-24 06:17:00,
2013-07-24 01:22:00,60.2,57.0,30.02,North,10,0.0,0.0,89,0.00,,CLR,0.00,0.00,VWS V14.01,2013-07-24 06:22:00,
2013-07-24 01:27:00,60.1,56.8,30.03,North,10,0.0,0.0,89,0.00,,CLR,0.00,0.00,VWS V14.01,2013-07-24 06:27:00,
2013-07-24 01:32:00,60.1,56.8,30.03,North,10,0.0,0.0,89,0.00,,CLR,0.00,0.00,VWS V14.01,2013-07-24 06:32:00,
2013-07-24 01:37:00,60.2,57.3,30.02,North,10,0.0,1.0,90,0.00,,CLR,0.00,0.00,VWS V14.01,2013-07-24 06:37:00,
2013-07-24 01:42:00,60.4,57.5,30.03,North,10,1.0,2.0,90,0.00,,CLR,0.00,0.00,VWS V14.01,2013-07-24 06:42:00,
2013-07-24 01:47:00,60.7,57.4,30.03,NNE,14,0.0,2.0,89,0.00,,CLR,0.00,0.00,VWS V14.01,2013-07-24 06:47:00,
2013-07-24 01:52:00,61.0,57.7,30.03,NNE,28,1.0,2.0,89,0.00,,CLR,0.00,0.00,VWS V14.01,2013-07-24 06:52:00,
2013-07-24 01:57:00,61.2,57.6,30.03,NE,34,0.0,1.0,88,0.00,,CLR,0.00,0.00,VWS V14.01,2013-07-24 06:57:00,
2013-07-24 02:02:00,61.4,57.8,30.03,NE,34,1.0,2.0,88,0.00,,CLR,0.00,0.00,VWS V14.01,2013-07-24 07:02:00,
2013-07-24 02:07:00,61.6,58.0,30.03,NNE,33,1.0,4.0,88,0.00,,CLR,0.00,0.00,VWS V14.01,2013-07-24 07:07:00,
2013-07-24 02:12:00,61.8,57.9,30.02,NNE,24,5.0,5.0,87,0.00,,CLR,0.00,0.00,VWS V14.01,2013-07-24 07:12:00,
2013-07-24 02:17:00,62.0,58.1,30.02,NE,34,2.0,4.0,87,0.00,,CLR,0.00,0.00,VWS V14.01,2013-07-24 07:17:00,
2013-07-24 02:22:00,62.0,58.1,30.02,NNE,20,3.0,4.0,87,0.00,,CLR,0.00,0.00,VWS V14.01,2013-07-24 07:22:00,
2013-07-24 02:27:00,62.0,58.1,30.02,NE,39,2.0,4.0,87,0.00,,CLR,0.00,0.00,VWS V14.01,2013-07-24 07:27:00,
2013-07-24 02:32:00,61.9,58.0,30.03,NE,37,0.0,3.0,87,0.00,,CLR,0.00,0.00,VWS V14.01,2013-07-24 07:32:00,
2013-07-24 02:37:00,61.9,58.0,30.03,NE,34,1.0,3.0,87,0.00,,CLR,0.00,0.00,VWS V14.01,2013-07-24 07:37:00,
2013-07-24 02:42:00,61.8,57.9,30.02,NNE,32,0.0,2.0,87,0.00,,CLR,0.00,0.00,VWS V14.01,2013-07-24 07:42:00,
2013-07-24 02:47:00,61.8,57.9,30.02,NE,53,2.0,2.0,87,0.00,,CLR,0.00,0.00,VWS V14.01,2013-07-24 07:47:00,
2013-07-24 02:52:00,61.9,58.0,30.02,NE,50,2.0,3.0,87,0.00,,CLR,0.00,0.00,VWS V14.01,2013-07-24 07:52:00,
2013-07-24 02:57:00,62.0,58.1,30.02,NE,37,3.0,4.0,87,0.00,,CLR,0.00,0.00,VWS V14.01,2013-07-24 07:57:00,
2013-07-24 03:02:00,62.0,58.1,30.02,NE,37,3.0,4.0,87,0.00,,CLR,0.00,0.00,VWS V14.01,2013-07-24 08:02:00,
2013-07-24 03:07:00,61.9,57.7,30.02,NE,41,2.0,4.0,86,0.00,,CLR,0.00,0.00,VWS V14.01,2013-07-24 08:07:00,
2013-07-24 03:12:00,61.7,57.5,30.02,NNE,29,3.0,5.0,86,0.00,,CLR,0.00,0.00,VWS V14.01,2013-07-24 08:12:00,
2013-07-24 03:17:00,61.5,57.3,30.03,NNE,21,3.0,5.0,86,0.00,,CLR,0.00,0.00,VWS V14.01,2013-07-24 08:17:00,
2013-07-24 03:22:00,61.3,57.1,30.02,NNE,29,2.0,4.0,86,0.00,,CLR,0.00,0.00,VWS V14.01,2013-07-24 08:22:00,
2013-07-24 03:27:00,61.2,57.3,30.03,NNE,31,1.0,3.0,87,0.00,,CLR,0.00,0.00,VWS V14.01,2013-07-24 08:27:00,
2013-07-24 03:32:00,60.9,57.0,30.03,NNE,31,0.0,1.0,87,0.00,,CLR,0.00,0.00,VWS V14.01,2013-07-24 08:32:00,
2013-07-24 03:37:00,60.5,56.6,30.03,NNE,31,0.0,0.0,87,0.00,,CLR,0.00,0.00,VWS V14.01,2013-07-24 08:37:00,
2013-07-24 03:42:00,60.2,56.6,30.03,NNE,31,0.0,0.0,88,0.00,,CLR,0.00,0.00,VWS V14.01,2013-07-24 08:42:00,
2013-07-24 03:47:00,60.0,56.4,30.03,NNE,31,1.0,1.0,88,0.00,,CLR,0.00,0.00,VWS V14.01,2013-07-24 08:47:00,
2013-07-24 03:52:00,59.7,56.5,30.03,NNE,31,0.0,2.0,89,0.00,,CLR,0.00,0.00,VWS V14.01,2013-07-24 08:52:00,
2013-07-24 03:57:00,59.6,56.4,30.03,NNE,31,0.0,1.0,89,0.00,,CLR,0.00,0.00,VWS V14.01,2013-07-24 08:57:00,
2013-07-24 04:02:00,59.5,56.3,30.04,NNE,31,0.0,1.0,89,0.00,,CLR,0.00,0.00,VWS V14.01,2013-07-24 09:02:00,
2013-07-24 04:07:00,59.1,56.2,30.03,NNE,31,0.0,2.0,90,0.00,,CLR,0.00,0.00,VWS V14.01,2013-07-24 09:07:00,
2013-07-24 04:12:00,59.0,56.1,30.04,NNE,31,2.0,3.0,90,0.00,,CLR,0.00,0.00,VWS V14.01,2013-07-24 09:12:00,
2013-07-24 04:17:00,58.9,56.0,30.04,NNE,31,1.0,1.0,90,0.00,,CLR,0.00,0.00,VWS V14.01,2013-07-24 09:17:00,
2013-07-24 04:22:00,58.8,56.2,30.04,NNE,14,0.0,3.0,91,0.00,,CLR,0.00,0.00,VWS V14.01,2013-07-24 09:22:00,
2013-07-24 04:27:00,58.5,55.9,30.04,NNE,21,2.0,3.0,91,0.00,,CLR,0.00,0.00,VWS V14.01,2013-07-24 09:27:00,
2013-07-24 04:32:00,58.3,55.7,30.04,NNE,32,0.0,1.0,91,0.00,,CLR,0.00,0.00,VWS V14.01,2013-07-24 09:32:00,
2013-07-24 04:37:00,58.5,55.9,30.05,NE,37,3.0,4.0,91,0.00,,CLR,0.00,0.00,VWS V14.01,2013-07-24 09:37:00,
2013-07-24 04:43:00,58.5,55.9,30.05,NNE,30,2.0,3.0,91,0.00,,CLR,0.00,0.00,VWS V14.01,2013-07-24 09:43:00,
2013-07-24 04:48:00,58.6,56.0,30.05,NE,37,2.0,2.0,91,0.00,,CLR,0.00,0.00,VWS V14.01,2013-07-24 09:48:00,
2013-07-24 04:53:00,58.7,56.1,30.06,NE,44,0.0,2.0,91,0.00,,CLR,0.00,0.00,VWS V14.01,2013-07-24 09:53:00,
2013-07-24 04:58:00,58.5,55.9,30.06,NE,36,2.0,2.0,91,0.00,,CLR,0.00,0.00,VWS V14.01,2013-07-24 09:58:00,
2013-07-24 05:03:00,58.3,55.7,30.06,NE,36,0.0,3.0,91,0.00,,CLR,0.00,0.00,VWS V14.01,2013-07-24 10:03:00,
2013-07-24 05:08:00,58.2,55.6,30.06,NE,36,1.0,2.0,91,0.00,,CLR,0.00,0.00,VWS V14.01,2013-07-24 10:08:00,
2013-07-24 05:13:00,58.2,55.6,30.06,NE,36,1.0,2.0,91,0.00,,CLR,0.00,0.00,VWS V14.01,2013-07-24 10:13:00,
2013-07-24 05:18:00,58.1,55.5,30.07,NNE,20,1.0,4.0,91,0.00,,CLR,0.00,0.00,VWS V14.01,2013-07-24 10:18:00,
2013-07-24 05:23:00,57.8,55.2,30.06,NNE,20,0.0,0.0,91,0.00,,CLR,0.00,0.00,VWS V14.01,2013-07-24 10:23:00,
2013-07-24 05:28:00,57.4,54.8,30.06,NNE,20,0.0,0.0,91,0.00,,CLR,0.00,0.00,VWS V14.01,2013-07-24 10:28:00,
2013-07-24 05:33:00,57.3,55.0,30.07,NNE,20,0.0,0.0,92,0.00,,CLR,0.00,0.00,VWS V14.01,2013-07-24 10:33:00,
2013-07-24 05:38:00,57.3,55.0,30.07,NNE,20,0.0,1.0,92,0.00,,CLR,0.00,0.00,VWS V14.01,2013-07-24 10:38:00,
2013-07-24 05:43:00,57.4,55.1,30.07,NNE,20,0.0,1.0,92,0.00,,CLR,0.00,0.00,VWS V14.01,2013-07-24 10:43:00,
2013-07-24 05:48:00,57.6,55.3,30.07,NNE,20,0.0,0.0,92,0.00,,CLR,0.00,0.00,VWS V14.01,2013-07-24 10:48:00,
2013-07-24 05:53:00,57.6,55.3,30.07,NNE,20,0.0,0.0,92,0.00,,CLR,0.00,0.00,VWS V14.01,2013-07-24 10:53:00,
2013-07-24 05:58:00,57.6,55.3,30.07,NNE,20,0.0,0.0,92,0.00,,CLR,0.00,0.00,VWS V14.01,2013-07-24 10:58:00,
2013-07-24 06:03:00,57.5,55.2,30.07,NNE,20,0.0,0.0,92,0.00,,CLR,0.00,5.00,VWS V14.01,2013-07-24 11:03:00,
2013-07-24 06:08:00,57.5,55.2,30.07,NNE,20,0.0,1.0,92,0.00,,CLR,0.00,5.00,VWS V14.01,2013-07-24 11:08:00,
2013-07-24 06:13:00,57.5,55.5,30.07,NNE,20,0.0,1.0,93,0.00,,CLR,0.00,7.00,VWS V14.01,2013-07-24 11:13:00,
2013-07-24 06:18:00,57.4,55.1,30.07,NNE,20,0.0,1.0,92,0.00,,CLR,0.00,11.00,VWS V14.01,2013-07-24 11:18:00,
2013-07-24 06:23:00,57.2,55.2,30.07,NNE,20,0.0,0.0,93,0.00,,CLR,0.00,12.00,VWS V14.01,2013-07-24 11:23:00,
2013-07-24 06:28:00,57.1,55.1,30.07,NNE,20,2.0,3.0,93,0.00,,CLR,0.00,14.00,VWS V14.01,2013-07-24 11:28:00,
2013-07-24 06:33:00,57.1,55.1,30.08,North,360,0.0,2.0,93,0.00,,CLR,0.00,19.00,VWS V14.01,2013-07-24 11:33:00,
2013-07-24 06:38:00,57.3,55.3,30.08,North,360,0.0,1.0,93,0.00,,CLR,0.00,21.00,VWS V14.01,2013-07-24 11:38:00,
2013-07-24 06:43:00,57.3,55.3,30.08,North,356,3.0,3.0,93,0.00,,CLR,0.00,42.00,VWS V14.01,2013-07-24 11:43:00,
2013-07-24 06:48:00,57.4,55.4,30.08,North,355,3.0,4.0,93,0.00,,CLR,0.00,63.00,VWS V14.01,2013-07-24 11:48:00,
2013-07-24 06:53:00,57.6,55.6,30.08,North,351,0.0,2.0,93,0.00,,CLR,0.00,77.00,VWS V14.01,2013-07-24 11:53:00,
2013-07-24 06:58:00,57.9,55.9,30.08,North,351,0.0,0.0,93,0.00,,CLR,0.00,91.00,VWS V14.01,2013-07-24 11:58:00,
2013-07-24 07:03:00,58.1,56.1,30.08,North,351,0.0,1.0,93,0.00,,CLR,0.00,107.00,VWS V14.01,2013-07-24 12:03:00,
2013-07-24 07:08:00,58.7,56.7,30.08,North,5,2.0,3.0,93,0.00,,CLR,0.00,125.00,VWS V14.01,2013-07-24 12:08:00,
2013-07-24 07:13:00,59.4,57.4,30.07,NNE,22,0.0,2.0,93,0.00,,CLR,0.00,141.00,VWS V14.01,2013-07-24 12:13:00,
2013-07-24 07:18:00,60.0,57.7,30.07,NNE,23,1.0,2.0,92,0.00,,CLR,0.00,158.00,VWS V14.01,2013-07-24 12:18:00,
2013-07-24 07:23:00,60.4,57.8,30.07,NNE,23,1.0,2.0,91,0.00,,CLR,0.00,107.00,VWS V14.01,2013-07-24 12:23:00,
2013-07-24 07:28:00,61.0,58.4,30.07,NNE,23,0.0,0.0,91,0.00,,CLR,0.00,67.00,VWS V14.01,2013-07-24 12:28:00,
2013-07-24 07:33:00,61.4,58.5,30.07,East,90,0.0,0.0,90,0.00,,CLR,0.00,105.00,VWS V14.01,2013-07-24 12:33:00,
2013-07-24 07:38:00,61.9,58.6,30.08,East,90,1.0,1.0,89,0.00,,CLR,0.00,130.00,VWS V14.01,2013-07-24 12:38:00,
2013-07-24 07:43:00,62.2,58.6,30.08,NE,56,1.0,3.0,88,0.00,,CLR,0.00,202.00,VWS V14.01,2013-07-24 12:43:00,
2013-07-24 07:48:00,62.6,58.7,30.08,NE,40,1.0,3.0,87,0.00,,CLR,0.00,51.00,VWS V14.01,2013-07-24 12:48:00,
2013-07-24 07:53:00,62.9,58.7,30.08,NNE,31,2.0,3.0,86,0.00,,CLR,0.00,49.00,VWS V14.01,2013-07-24 12:53:00,
2013-07-24 07:58:00,63.1,58.5,30.08,ENE,76,0.0,4.0,85,0.00,,CLR,0.00,72.00,VWS V14.01,2013-07-24 12:58:00,
2013-07-24 08:03:00,63.4,58.8,30.08,ENE,76,1.0,2.0,85,0.00,,CLR,0.00,51.00,VWS V14.01,2013-07-24 13:03:00,
2013-07-24 08:08:00,63.5,58.6,30.08,ENE,71,2.0,4.0,84,0.00,,CLR,0.00,104.00,VWS V14.01,2013-07-24 13:08:00,
2013-07-24 08:13:00,63.8,59.2,30.08,ENE,64,1.0,2.0,85,0.00,,CLR,0.00,127.00,VWS V14.01,2013-07-24 13:13:00,
2013-07-24 08:18:00,64.2,59.3,30.09,ENE,64,1.0,1.0,84,0.00,,CLR,0.00,54.00,VWS V14.01,2013-07-24 13:18:00,
2013-07-24 08:23:00,64.3,59.0,30.09,ENE,64,0.0,2.0,83,0.00,,CLR,0.00,56.00,VWS V14.01,2013-07-24 13:23:00,
2013-07-24 08:28:00,64.5,59.6,30.09,ENE,69,2.0,4.0,84,0.00,,CLR,0.00,60.00,VWS V14.01,2013-07-24 13:28:00,
2013-07-24 08:33:00,64.8,59.5,30.09,East,85,1.0,1.0,83,0.00,,CLR,0.00,62.00,VWS V14.01,2013-07-24 13:33:00,
2013-07-24 08:38:00,64.8,59.2,30.09,East,93,0.0,2.0,82,0.00,,CLR,0.00,116.00,VWS V14.01,2013-07-24 13:38:00,
2013-07-24 08:43:00,65.1,59.8,30.09,East,92,1.0,3.0,83,0.00,,CLR,0.00,53.00,VWS V14.01,2013-07-24 13:43:00,
2013-07-24 08:48:00,65.3,59.7,30.09,ENE,62,1.0,3.0,82,0.00,,CLR,0.00,53.00,VWS V14.01,2013-07-24 13:48:00,
2013-07-24 08:53:00,65.9,60.6,30.09,East,81,0.0,3.0,83,0.00,,CLR,0.00,149.00,VWS V14.01,2013-07-24 13:53:00,
2013-07-24 08:58:00,66.0,59.7,30.09,East,81,1.0,1.0,80,0.00,,CLR,0.00,62.00,VWS V14.01,2013-07-24 13:58:00,
2013-07-24 09:03:00,66.4,60.4,30.09,East,81,2.0,2.0,81,0.00,,CLR,0.00,76.00,VWS V14.01,2013-07-24 14:03:00,
2013-07-24 09:08:00,66.5,59.8,30.09,ENE,66,1.0,2.0,79,0.00,,CLR,0.00,311.00,VWS V14.01,2013-07-24 14:08:00,
2013-07-24 09:13:00,66.5,59.8,30.10,ENE,66,1.0,3.0,79,0.00,,CLR,0.00,343.00,VWS V14.01,2013-07-24 14:13:00,
2013-07-24 09:18:00,67.2,60.8,30.10,WNW,286,2.0,3.0,80,0.00,,CLR,0.00,387.00,VWS V14.01,2013-07-24 14:18:00,
2013-07-24 09:23:00,68.0,62.3,30.10,WNW,289,1.0,1.0,82,0.00,,CLR,0.00,427.00,VWS V14.01,2013-07-24 14:23:00,
2013-07-24 09:29:00,68.6,61.1,30.10,North,10,1.0,4.0,77,0.00,,CLR,0.00,441.00,VWS V14.01,2013-07-24 14:29:00,
2013-07-24 09:34:00,69.0,61.1,30.09,NNW,338,1.0,3.0,76,0.00,,CLR,0.00,452.00,VWS V14.01,2013-07-24 14:34:00,
2013-07-24 09:39:00,68.9,61.0,30.09,West,271,0.0,1.0,76,0.00,,CLR,0.00,459.00,VWS V14.01,2013-07-24 14:39:00,
2013-07-24 09:44:00,69.5,62.3,30.09,NNE,25,3.0,3.0,78,0.00,,CLR,0.00,469.00,VWS V14.01,2013-07-24 14:44:00,
2013-07-24 09:49:00,70.1,62.2,30.10,NNE,25,0.0,3.0,76,0.00,,CLR,0.00,485.00,VWS V14.01,2013-07-24 14:49:00,
2013-07-24 09:54:00,70.4,62.5,30.10,SW,230,2.0,3.0,76,0.00,,CLR,0.00,504.00,VWS V14.01,2013-07-24 14:54:00,
2013-07-24 09:59:00,70.5,62.6,30.10,SW,219,3.0,4.0,76,0.00,,CLR,0.00,515.00,VWS V14.01,2013-07-24 14:59:00,
2013-07-24 10:04:00,71.2,63.6,30.10,SSW,206,2.0,4.0,77,0.00,,CLR,0.00,526.00,VWS V14.01,2013-07-24 15:04:00,
2013-07-24 10:09:00,71.3,63.3,30.09,NW,316,3.0,3.0,76,0.00,,CLR,0.00,548.00,VWS V14.01,2013-07-24 15:09:00,
2013-07-24 10:14:00,71.2,62.5,30.09,NW,323,1.0,1.0,74,0.00,,CLR,0.00,571.00,VWS V14.01,2013-07-24 15:14:00,
2013-07-24 10:19:00,72.0,62.5,30.09,West,277,0.0,1.0,72,0.00,,CLR,0.00,603.00,VWS V14.01,2013-07-24 15:19:00,
2013-07-24 10:24:00,71.7,62.2,30.09,West,275,0.0,1.0,72,0.00,,CLR,0.00,636.00,VWS V14.01,2013-07-24 15:24:00,
2013-07-24 10:29:00,73.4,64.6,30.09,North,10,0.0,4.0,74,0.00,,CLR,0.00,668.00,VWS V14.01,2013-07-24 15:29:00,
2013-07-24 10:34:00,73.0,63.0,30.09,NNE,20,3.0,3.0,71,0.00,,CLR,0.00,696.00,VWS V14.01,2013-07-24 15:34:00,
2013-07-24 10:39:00,73.7,64.5,30.09,NNW,344,4.0,5.0,73,0.00,,CLR,0.00,728.00,VWS V14.01,2013-07-24 15:39:00,
2013-07-24 10:44:00,73.9,62.7,30.09,North,355,2.0,5.0,68,0.00,,CLR,0.00,726.00,VWS V14.01,2013-07-24 15:44:00,
2013-07-24 10:49:00,73.8,64.6,30.09,North,360,5.0,5.0,73,0.00,,CLR,0.00,735.00,VWS V14.01,2013-07-24 15:49:00,
2013-07-24 10:54:00,74.7,62.2,30.09,NE,37,3.0,5.0,65,0.00,,CLR,0.00,738.00,VWS V14.01,2013-07-24 15:54:00,
2013-07-24 10:59:00,74.6,61.6,30.09,NNE,24,1.0,4.0,64,0.00,,CLR,0.00,744.00,VWS V14.01,2013-07-24 15:59:00,
2013-07-24 11:04:00,73.9,62.3,30.09,NE,54,2.0,4.0,67,0.00,,CLR,0.00,745.00,VWS V14.01,2013-07-24 16:04:00,
2013-07-24 11:09:00,74.8,61.8,30.09,NNE,31,2.0,7.0,64,0.00,,CLR,0.00,777.00,VWS V14.01,2013-07-24 16:09:00,
2013-07-24 11:14:00,75.5,62.0,30.09,NNE,14,3.0,6.0,63,0.00,,CLR,0.00,745.00,VWS V14.01,2013-07-24 16:14:00,
2013-07-24 11:19:00,75.1,61.7,30.09,NNE,18,3.0,7.0,63,0.00,,CLR,0.00,761.00,VWS V14.01,2013-07-24 16:19:00,
2013-07-24 11:24:00,75.9,62.4,30.09,North,360,1.0,5.0,63,0.00,,CLR,0.00,831.00,VWS V14.01,2013-07-24 16:24:00,
2013-07-24 11:29:00,75.6,61.7,30.09,NW,322,3.0,5.0,62,0.00,,CLR,0.00,870.00,VWS V14.01,2013-07-24 16:29:00,
2013-07-24 11:34:00,74.2,60.4,30.09,NW,320,2.0,4.0,62,0.00,,CLR,0.00,243.00,VWS V14.01,2013-07-24 16:34:00,
2013-07-24 11:39:00,73.4,61.8,30.09,NNW,331,2.0,4.0,67,0.00,,CLR,0.00,942.00,VWS V14.01,2013-07-24 16:39:00,
2013-07-24 11:44:00,75.4,62.8,30.09,NNW,341,3.0,6.0,65,0.00,,SCT033,0.00,1011.00,VWS V14.01,2013-07-24 16:44:00,
2013-07-24 11:49:00,76.0,62.0,30.09,North,352,7.0,8.0,62,0.00,,SCT033,0.00,1081.00,VWS V14.01,2013-07-24 16:49:00,
2013-07-24 11:54:00,74.8,60.9,30.09,NW,324,3.0,5.0,62,0.00,,SCT033,0.00,193.00,VWS V14.01,2013-07-24 16:54:00,
2013-07-24 11:59:00,76.1,62.6,30.09,ENE,57,2.0,4.0,63,0.00,,SCT033,0.00,1011.00,VWS V14.01,2013-07-24 16:59:00,
2013-07-24 12:04:00,76.5,62.1,30.09,North,5,2.0,7.0,61,0.00,,SCT033,0.00,1060.00,VWS V14.01,2013-07-24 17:04:00,
2013-07-24 12:09:00,76.9,61.0,30.09,NE,36,4.0,5.0,58,0.00,,SCT033,0.00,1172.00,VWS V14.01,2013-07-24 17:09:00,
2013-07-24 12:14:00,77.1,62.2,30.09,NNE,32,5.0,5.0,60,0.00,,SCT033,0.00,1150.00,VWS V14.01,2013-07-24 17:14:00,
2013-07-24 12:19:00,77.5,63.5,30.09,East,92,7.0,11.0,62,0.00,,SCT033,0.00,1102.00,VWS V14.01,2013-07-24 17:19:00,
2013-07-24 12:24:00,77.4,61.0,30.09,NNE,33,0.0,5.0,57,0.00,,SCT033,0.00,178.00,VWS V14.01,2013-07-24 17:24:00,
2013-07-24 12:29:00,76.9,60.5,30.09,North,10,2.0,9.0,57,0.00,,SCT033,0.00,1014.00,VWS V14.01,2013-07-24 17:29:00,
2013-07-24 12:35:00,76.7,61.3,30.09,NNE,15,4.0,7.0,59,0.00,,SCT033,0.00,207.00,VWS V14.01,2013-07-24 17:35:00,
2013-07-24 12:40:00,77.4,61.5,30.09,ENE,71,3.0,9.0,58,0.00,,SCT033,0.00,1081.00,VWS V14.01,2013-07-24 17:40:00,
2013-07-24 12:45:00,76.4,60.5,30.10,NNE,32,3.0,10.0,58,0.00,,SCT033,0.00,274.00,VWS V14.01,2013-07-24 17:45:00,
2013-07-24 12:50:00,76.6,61.2,30.09,NW,320,11.0,11.0,59,0.00,,SCT033,0.00,1100.00,VWS V14.01,2013-07-24 17:50:00,
2013-07-24 12:55:00,77.0,61.1,30.09,NE,39,0.0,4.0,58,0.00,,SCT050,0.00,1078.00,VWS V14.01,2013-07-24 17:55:00,
2013-07-24 13:00:00,78.0,61.0,30.09,NW,321,3.0,7.0,56,0.00,,SCT050,0.00,1074.00,VWS V14.01,2013-07-24 18:00:00,
2013-07-24 13:05:00,77.7,60.3,30.09,NNE,15,3.0,6.0,55,0.00,,SCT050,0.00,1146.00,VWS V14.01,2013-07-24 18:05:00,
2013-07-24 13:10:00,78.4,61.4,30.09,North,353,3.0,6.0,56,0.00,,SCT050,0.00,339.00,VWS V14.01,2013-07-24 18:10:00,
2013-07-24 13:15:00,76.6,59.8,30.09,NNW,339,4.0,7.0,56,0.00,,SCT050,0.00,299.00,VWS V14.01,2013-07-24 18:15:00,
2013-07-24 13:20:00,75.2,59.4,30.09,North,10,4.0,6.0,58,0.00,,SCT050,0.00,313.00,VWS V14.01,2013-07-24 18:20:00,
2013-07-24 13:25:00,76.7,61.3,30.09,NE,41,1.0,4.0,59,0.00,,SCT050,0.00,1095.00,VWS V14.01,2013-07-24 18:25:00,
2013-07-24 13:30:00,78.4,61.4,30.09,NW,325,6.0,7.0,56,0.00,,SCT050,0.00,1109.00,VWS V14.01,2013-07-24 18:30:00,
2013-07-24 13:35:00,78.7,63.2,30.09,NE,51,7.0,9.0,59,0.00,,SCT050,0.00,1151.00,VWS V14.01,2013-07-24 18:35:00,
2013-07-24 13:40:00,78.9,61.4,30.09,NNE,15,3.0,5.0,55,0.00,,SCT050,0.00,1188.00,VWS V14.01,2013-07-24 18:40:00,
2013-07-24 13:45:00,78.7,62.2,30.08,North,10,2.0,7.0,57,0.00,,SCT050,0.00,1181.00,VWS V14.01,2013-07-24 18:45:00,
2013-07-24 13:50:00,77.3,60.9,30.08,NNE,32,10.0,10.0,57,0.00,,BKN055,0.00,262.00,VWS V14.01,2013-07-24 18:50:00,
2013-07-24 13:55:00,75.9,60.1,30.08,ENE,57,2.0,3.0,58,0.00,,BKN055,0.00,265.00,VWS V14.01,2013-07-24 18:55:00,
2013-07-24 14:00:00,77.1,59.7,30.08,ENE,62,1.0,5.0,55,0.00,,BKN055,0.00,1018.00,VWS V14.01,2013-07-24 19:00:00,
2013-07-24 14:05:00,78.2,61.2,30.08,NE,54,9.0,11.0,56,0.00,,BKN055,0.00,1074.00,VWS V14.01,2013-07-24 19:05:00,
2013-07-24 14:10:00,78.1,61.6,30.08,ENE,62,7.0,11.0,57,0.00,,BKN055,0.00,325.00,VWS V14.01,2013-07-24 19:10:00,
2013-07-24 14:15:00,77.6,61.2,30.08,NE,37,6.0,9.0,57,0.00,,BKN055,0.00,694.00,VWS V14.01,2013-07-24 19:15:00,
2013-07-24 14:20:00,76.4,59.6,30.08,NE,45,5.0,7.0,56,0.00,,BKN055,0.00,434.00,VWS V14.01,2013-07-24 19:20:00,
2013-07-24 14:25:00,76.4,60.5,30.08,NNE,20,5.0,10.0,58,0.00,,BKN055,0.00,434.00,VWS V14.01,2013-07-24 19:25:00,
2013-07-24 14:30:00,76.7,62.2,30.08,NE,45,4.0,6.0,61,0.00,,BKN055,0.00,431.00,VWS V14.01,2013-07-24 19:30:00,
2013-07-24 14:35:00,76.8,61.4,30.08,North,10,5.0,7.0,59,0.00,,BKN055,0.00,431.00,VWS V14.01,2013-07-24 19:35:00,
2013-07-24 14:40:00,78.0,62.5,30.08,North,10,1.0,4.0,59,0.00,,SCT060,0.00,1018.00,VWS V14.01,2013-07-24 19:40:00,
2013-07-24 14:45:00,77.7,60.3,30.08,North,10,1.0,2.0,55,0.00,,SCT060,0.00,381.00,VWS V14.01,2013-07-24 19:45:00,
2013-07-24 14:50:00,76.6,60.2,30.08,ENE,64,4.0,7.0,57,0.00,,SCT060,0.00,346.00,VWS V14.01,2013-07-24 19:50:00,
2013-07-24 14:55:00,76.1,60.3,30.08,NE,49,2.0,5.0,58,0.00,,SCT060,0.00,415.00,VWS V14.01,2013-07-24 19:55:00,
2013-07-24 15:00:00,76.3,60.9,30.08,NNE,17,2.0,4.0,59,0.00,,SCT060,0.00,1081.00,VWS V14.01,2013-07-24 20:00:00,
2013-07-24 15:05:00,77.0,60.6,30.08,NE,40,2.0,3.0,57,0.00,,SCT060,0.00,339.00,VWS V14.01,2013-07-24 20:05:00,
2013-07-24 15:10:00,76.7,58.3,30.08,NNE,23,0.0,2.0,53,0.00,,SCT060,0.00,418.00,VWS V14.01,2013-07-24 20:10:00,
2013-07-24 15:15:00,76.6,59.8,30.08,NNE,24,2.0,2.0,56,0.00,,SCT060,0.00,288.00,VWS V14.01,2013-07-24 20:15:00,
2013-07-24 15:20:00,76.3,60.9,30.08,NNE,19,5.0,6.0,59,0.00,,SCT060,0.00,257.00,VWS V14.01,2013-07-24 20:20:00,
2013-07-24 15:25:00,76.0,59.7,30.08,NE,39,1.0,3.0,57,0.00,,SCT060,0.00,308.00,VWS V14.01,2013-07-24 20:25:00,
2013-07-24 15:30:00,76.1,62.2,30.08,NNE,14,2.0,3.0,62,0.00,,SCT060,0.00,338.00,VWS V14.01,2013-07-24 20:30:00,
2013-07-24 15:36:00,75.9,61.0,30.08,North,356,1.0,2.0,60,0.00,,SCT060,0.00,322.00,VWS V14.01,2013-07-24 20:36:00,
2013-07-24 15:41:00,76.2,61.8,30.08,NNE,31,3.0,5.0,61,0.00,,SCT070,0.00,258.00,VWS V14.01,2013-07-24 20:41:00,
2013-07-24 15:46:00,75.8,60.5,30.08,ENE,72,4.0,6.0,59,0.00,,SCT070,0.00,341.00,VWS V14.01,2013-07-24 20:46:00,
2013-07-24 15:51:00,75.6,59.3,30.07,East,87,1.0,4.0,57,0.00,,SCT070,0.00,385.00,VWS V14.01,2013-07-24 20:51:00,
2013-07-24 15:56:00,76.2,60.4,30.07,NE,44,2.0,6.0,58,0.00,,SCT070,0.00,408.00,VWS V14.01,2013-07-24 20:56:00,
2013-07-24 16:01:00,76.4,60.1,30.07,NE,52,2.0,3.0,57,0.00,,SCT070,0.00,392.00,VWS V14.01,2013-07-24 21:01:00,
2013-07-24 16:06:00,77.6,61.7,30.07,NNE,18,1.0,3.0,58,0.00,,SCT070,0.00,441.00,VWS V14.01,2013-07-24 21:06:00,
2013-07-24 16:11:00,77.3,59.9,30.07,NNE,22,0.0,2.0,55,0.00,,SCT070,0.00,403.00,VWS V14.01,2013-07-24 21:11:00,
2013-07-24 16:16:00,76.9,61.0,30.07,ENE,57,2.0,2.0,58,0.00,,SCT070,0.00,306.00,VWS V14.01,2013-07-24 21:16:00,
2013-07-24 16:21:00,76.5,61.1,30.07,NE,35,4.0,5.0,59,0.00,,SCT070,0.00,348.00,VWS V14.01,2013-07-24 21:21:00,
2013-07-24 16:26:00,76.6,61.2,30.07,NE,53,4.0,6.0,59,0.00,,SCT070,0.00,330.00,VWS V14.01,2013-07-24 21:26:00,
2013-07-24 16:31:00,76.3,60.9,30.07,ENE,73,2.0,4.0,59,0.00,,SCT070,0.00,316.00,VWS V14.01,2013-07-24 21:31:00,
2013-07-24 16:36:00,76.4,63.3,30.07,North,10,4.0,5.0,64,0.00,,SCT070,0.00,316.00,VWS V14.01,2013-07-24 21:36:00,
2013-07-24 16:41:00,76.5,62.1,30.07,North,360,3.0,3.0,61,0.00,,SCT070,0.00,369.00,VWS V14.01,2013-07-24 21:41:00,
2013-07-24 16:46:00,76.3,60.9,30.07,NNE,31,1.0,3.0,59,0.00,,SCT070,0.00,387.00,VWS V14.01,2013-07-24 21:46:00,
2013-07-24 16:51:00,77.0,60.1,30.07,North,10,2.0,2.0,56,0.00,,SCT070,0.00,178.00,VWS V14.01,2013-07-24 21:51:00,
2013-07-24 16:56:00,76.6,61.2,30.07,North,10,1.0,1.0,59,0.00,,SCT070,0.00,629.00,VWS V14.01,2013-07-24 21:56:00,
2013-07-24 17:01:00,77.3,60.4,30.07,North,10,0.0,2.0,56,0.00,,SCT070,0.00,621.00,VWS V14.01,2013-07-24 22:01:00,
2013-07-24 17:06:00,77.5,60.1,30.06,ENE,69,4.0,5.0,55,0.00,,SCT070,0.00,622.00,VWS V14.01,2013-07-24 22:06:00,
2013-07-24 17:11:00,77.2,60.8,30.06,East,81,2.0,2.0,57,0.00,,SCT070,0.00,605.00,VWS V14.01,2013-07-24 22:11:00,
2013-07-24 17:16:00,77.0,61.6,30.06,SE,126,3.0,3.0,59,0.00,,SCT070,0.00,571.00,VWS V14.01,2013-07-24 22:16:00,
2013-07-24 17:21:00,77.2,61.3,30.06,East,93,2.0,2.0,58,0.00,,SCT070,0.00,568.00,VWS V14.01,2013-07-24 22:21:00,
2013-07-24 17:26:00,77.3,60.9,30.06,East,86,1.0,1.0,57,0.00,,SCT070,0.00,527.00,VWS V14.01,2013-07-24 22:26:00,
2013-07-24 17:31:00,77.5,60.1,30.06,East,87,1.0,6.0,55,0.00,,SCT070,0.00,513.00,VWS V14.01,2013-07-24 22:31:00,
2013-07-24 17:36:00,77.3,59.9,30.06,NE,37,1.0,5.0,55,0.00,,SCT070,0.00,497.00,VWS V14.01,2013-07-24 22:36:00,
2013-07-24 17:42:00,77.4,61.0,30.06,North,355,2.0,3.0,57,0.00,,SCT070,0.00,487.00,VWS V14.01,2013-07-24 22:42:00,
2013-07-24 17:46:00,76.8,61.4,30.05,ENE,72,1.0,2.0,59,0.00,,SCT070,0.00,469.00,VWS V14.01,2013-07-24 22:46:00,
2013-07-24 17:52:00,76.7,59.3,30.05,NNE,18,0.0,3.0,55,0.00,,CLR,0.00,452.00,VWS V14.01,2013-07-24 22:52:00,
2013-07-24 17:57:00,76.4,59.6,30.05,NW,325,0.0,2.0,56,0.00,,CLR,0.00,439.00,VWS V14.01,2013-07-24 22:57:00,
2013-07-24 18:02:00,76.4,60.1,30.05,NNW,333,1.0,3.0,57,0.00,,CLR,0.00,230.00,VWS V14.01,2013-07-24 23:02:00,
2013-07-24 18:07:00,76.3,60.5,30.05,North,360,1.0,2.0,58,0.00,,CLR,0.00,204.00,VWS V14.01,2013-07-24 23:07:00,
2013-07-24 18:12:00,76.8,60.4,30.05,ENE,60,1.0,3.0,57,0.00,,CLR,0.00,79.00,VWS V14.01,2013-07-24 23:12:00,
2013-07-24 18:17:00,76.7,59.8,30.05,East,79,1.0,3.0,56,0.00,,CLR,0.00,132.00,VWS V14.01,2013-07-24 23:17:00,
2013-07-24 18:22:00,76.6,60.2,30.05,ENE,69,2.0,4.0,57,0.00,,CLR,0.00,81.00,VWS V14.01,2013-07-24 23:22:00,
2013-07-24 18:27:00,76.4,60.1,30.05,NE,41,2.0,5.0,57,0.00,,CLR,0.00,199.00,VWS V14.01,2013-07-24 23:27:00,
2013-07-24 18:32:00,76.4,61.0,30.05,ENE,66,1.0,3.0,59,0.00,,CLR,0.00,98.00,VWS V14.01,2013-07-24 23:32:00,
2013-07-24 18:37:00,76.3,60.5,30.05,ENE,67,4.0,4.0,58,0.00,,CLR,0.00,301.00,VWS V14.01,2013-07-24 23:37:00,
2013-07-24 18:42:00,76.0,59.2,30.05,ENE,70,3.0,3.0,56,0.00,,CLR,0.00,109.00,VWS V14.01,2013-07-24 23:42:00,
2013-07-24 18:47:00,75.9,59.6,30.05,ENE,58,1.0,2.0,57,0.00,,CLR,0.00,83.00,VWS V14.01,2013-07-24 23:47:00,
2013-07-24 18:52:00,75.7,59.9,30.05,NE,49,0.0,3.0,58,0.00,,CLR,0.00,56.00,VWS V14.01,2013-07-24 23:52:00,
2013-07-24 18:57:00,75.5,59.2,30.05,NE,51,1.0,1.0,57,0.00,,CLR,0.00,47.00,VWS V14.01,2013-07-24 23:57:00,
2013-07-24 19:02:00,75.4,58.6,30.05,NE,51,2.0,2.0,56,0.00,,CLR,0.00,47.00,VWS V14.01,2013-07-25 00:02:00,
2013-07-24 19:07:00,75.3,59.0,30.05,NE,54,0.0,2.0,57,0.00,,CLR,0.00,42.00,VWS V14.01,2013-07-25 00:07:00,
2013-07-24 19:12:00,75.2,58.9,30.05,NE,54,0.0,2.0,57,0.00,,CLR,0.00,39.00,VWS V14.01,2013-07-25 00:12:00,
2013-07-24 19:17:00,75.1,58.3,30.05,NE,54,0.0,0.0,56,0.00,,CLR,0.00,44.00,VWS V14.01,2013-07-25 00:17:00,
2013-07-24 19:22:00,74.6,59.3,30.05,NE,54,1.0,1.0,59,0.00,,CLR,0.00,35.00,VWS V14.01,2013-07-25 00:22:00,
2013-07-24 19:27:00,74.6,59.8,30.05,NE,54,1.0,1.0,60,0.00,,CLR,0.00,33.00,VWS V14.01,2013-07-25 00:27:00,
2013-07-24 19:32:00,74.5,59.7,30.05,NE,54,0.0,1.0,60,0.00,,CLR,0.00,32.00,VWS V14.01,2013-07-25 00:32:00,
2013-07-24 19:37:00,74.0,60.6,30.05,NE,54,0.0,0.0,63,0.00,,CLR,0.00,30.00,VWS V14.01,2013-07-25 00:37:00,
2013-07-24 19:42:00,73.7,60.3,30.05,NE,54,0.0,0.0,63,0.00,,CLR,0.00,28.00,VWS V14.01,2013-07-25 00:42:00,
2013-07-24 19:47:00,73.3,60.4,30.05,NE,54,0.0,0.0,64,0.00,,CLR,0.00,26.00,VWS V14.01,2013-07-25 00:47:00,
2013-07-24 19:52:00,73.2,60.3,30.05,NE,54,0.0,1.0,64,0.00,,CLR,0.00,23.00,VWS V14.01,2013-07-25 00:52:00,
2013-07-24 19:57:00,73.3,60.8,30.05,NE,54,0.0,0.0,65,0.00,,CLR,0.00,21.00,VWS V14.01,2013-07-25 00:57:00,
2013-07-24 20:02:00,72.9,60.9,30.05,NE,54,0.0,0.0,66,0.00,,CLR,0.00,19.00,VWS V14.01,2013-07-25 01:02:00,
2013-07-24 20:07:00,72.4,61.7,30.05,NE,54,0.0,0.0,69,0.00,,CLR,0.00,18.00,VWS V14.01,2013-07-25 01:07:00,
2013-07-24 20:12:00,72.0,61.3,30.05,NE,54,0.0,0.0,69,0.00,,CLR,0.00,14.00,VWS V14.01,2013-07-25 01:12:00,
2013-07-24 20:17:00,71.4,60.3,30.05,NE,54,0.0,0.0,68,0.00,,CLR,0.00,12.00,VWS V14.01,2013-07-25 01:17:00,
2013-07-24 20:22:00,70.9,60.6,30.05,NE,54,0.0,0.0,70,0.00,,CLR,0.00,11.00,VWS V14.01,2013-07-25 01:22:00,
2013-07-24 20:27:00,70.6,61.1,30.05,NE,54,0.0,0.0,72,0.00,,CLR,0.00,7.00,VWS V14.01,2013-07-25 01:27:00,
2013-07-24 20:32:00,70.2,62.3,30.05,NE,54,0.0,0.0,76,0.00,,CLR,0.00,5.00,VWS V14.01,2013-07-25 01:32:00,
2013-07-24 20:37:00,70.0,61.7,30.06,NE,54,0.0,0.0,75,0.00,,CLR,0.00,0.00,VWS V14.01,2013-07-25 01:37:00,
2013-07-24 20:42:00,69.6,61.0,30.06,NE,54,0.0,0.0,74,0.00,,CLR,0.00,0.00,VWS V14.01,2013-07-25 01:42:00,
2013-07-24 20:47:00,69.0,61.1,30.06,NE,54,0.0,0.0,76,0.00,,CLR,0.00,0.00,VWS V14.01,2013-07-25 01:47:00,
2013-07-24 20:52:00,68.3,61.2,30.06,NE,54,0.0,0.0,78,0.00,,CLR,0.00,0.00,VWS V14.01,2013-07-25 01:52:00,
2013-07-24 20:57:00,68.2,61.1,30.06,NE,54,0.0,0.0,78,0.00,,CLR,0.00,0.00,VWS V14.01,2013-07-25 01:57:00,
2013-07-24 21:02:00,67.8,60.3,30.06,NE,54,0.0,0.0,77,0.00,,CLR,0.00,0.00,VWS V14.01,2013-07-25 02:02:00,
2013-07-24 21:07:00,67.7,60.6,30.06,NE,54,0.0,0.0,78,0.00,,CLR,0.00,0.00,VWS V14.01,2013-07-25 02:07:00,
2013-07-24 21:12:00,67.4,60.7,30.06,NE,54,0.0,0.0,79,0.00,,CLR,0.00,0.00,VWS V14.01,2013-07-25 02:12:00,
2013-07-24 21:18:00,67.0,60.6,30.07,NE,54,0.0,1.0,80,0.00,,CLR,0.00,0.00,VWS V14.01,2013-07-25 02:18:00,
2013-07-24 21:23:00,66.5,60.5,30.07,NE,54,0.0,0.0,81,0.00,,CLR,0.00,0.00,VWS V14.01,2013-07-25 02:23:00,
2013-07-24 21:28:00,66.0,60.3,30.06,NE,54,0.0,0.0,82,0.00,,CLR,0.00,0.00,VWS V14.01,2013-07-25 02:28:00,
2013-07-24 21:33:00,66.1,60.5,30.06,NE,54,0.0,0.0,82,0.00,,CLR,0.00,0.00,VWS V14.01,2013-07-25 02:33:00,
2013-07-24 21:38:00,66.1,60.5,30.06,NE,54,0.0,0.0,82,0.00,,CLR,0.00,0.00,VWS V14.01,2013-07-25 02:38:00,
2013-07-24 21:43:00,65.6,60.0,30.07,NE,54,0.0,0.0,82,0.00,,CLR,0.00,0.00,VWS V14.01,2013-07-25 02:43:00,
2013-07-24 21:48:00,65.2,59.9,30.06,NE,54,0.0,0.0,83,0.00,,CLR,0.00,0.00,VWS V14.01,2013-07-25 02:48:00,
2013-07-24 21:53:00,65.1,60.2,30.07,NE,54,0.0,0.0,84,0.00,,CLR,0.00,0.00,VWS V14.01,2013-07-25 02:53:00,
2013-07-24 21:58:00,65.1,60.2,30.07,NE,54,0.0,0.0,84,0.00,,CLR,0.00,0.00,VWS V14.01,2013-07-25 02:58:00,
2013-07-24 22:03:00,65.0,60.0,30.07,NE,54,0.0,0.0,84,0.00,,CLR,0.00,0.00,VWS V14.01,2013-07-25 03:03:00,
2013-07-24 22:08:00,64.7,60.1,30.07,NE,54,0.0,0.0,85,0.00,,CLR,0.00,0.00,VWS V14.01,2013-07-25 03:08:00,
2013-07-24 22:13:00,64.4,60.1,30.07,NE,54,0.0,1.0,86,0.00,,CLR,0.00,0.00,VWS V14.01,2013-07-25 03:13:00,
2013-07-24 22:18:00,64.0,59.4,30.07,NE,54,2.0,2.0,85,0.00,,CLR,0.00,0.00,VWS V14.01,2013-07-25 03:18:00,
2013-07-24 22:23:00,64.1,59.5,30.07,NE,54,1.0,2.0,85,0.00,,CLR,0.00,0.00,VWS V14.01,2013-07-25 03:23:00,
2013-07-24 22:28:00,64.5,59.2,30.07,NE,54,1.0,2.0,83,0.00,,CLR,0.00,0.00,VWS V14.01,2013-07-25 03:28:00,
2013-07-24 22:33:00,65.1,59.1,30.07,NE,54,0.0,0.0,81,0.00,,CLR,0.00,0.00,VWS V14.01,2013-07-25 03:33:00,
2013-07-24 22:38:00,64.1,58.8,30.07,NE,54,0.0,1.0,83,0.00,,CLR,0.00,0.00,VWS V14.01,2013-07-25 03:38:00,
2013-07-24 22:44:00,63.2,59.3,30.07,NE,54,0.0,0.0,87,0.00,,CLR,0.00,0.00,VWS V14.01,2013-07-25 03:44:00,
2013-07-24 22:49:00,63.4,59.5,30.07,NE,54,0.0,0.0,87,0.00,,CLR,0.00,0.00,VWS V14.01,2013-07-25 03:49:00,
2013-07-24 22:54:00,63.4,59.5,30.07,NE,54,0.0,0.0,87,0.00,,CLR,0.00,0.00,VWS V14.01,2013-07-25 03:54:00,
2013-07-24 22:59:00,63.2,59.3,30.07,NE,54,1.0,1.0,87,0.00,,CLR,0.00,0.00,VWS V14.01,2013-07-25 03:59:00,
2013-07-24 23:01:00,63.2,59.0,30.07,NE,54,0.0,1.0,86,0.00,,CLR,0.00,0.00,VWS V14.01,2013-07-25 04:01:00,
2013-07-24 23:02:00,63.2,59.0,30.07,NE,54,0.0,0.0,86,0.00,,CLR,0.00,0.00,VWS V14.01,2013-07-25 04:02:00,
2013-07-24 23:07:00,63.5,59.2,30.07,NE,54,0.0,0.0,86,0.00,,CLR,0.00,0.00,VWS V14.01,2013-07-25 04:07:00,
2013-07-24 23:12:00,63.3,58.4,30.07,NE,54,0.0,0.0,84,0.00,,CLR,0.00,0.00,VWS V14.01,2013-07-25 04:12:00,
2013-07-24 23:17:00,63.3,58.7,30.07,NE,54,0.0,0.0,85,0.00,,CLR,0.00,0.00,VWS V14.01,2013-07-25 04:17:00,
2013-07-24 23:22:00,63.9,59.0,30.07,NE,54,0.0,0.0,84,0.00,,CLR,0.00,0.00,VWS V14.01,2013-07-25 04:22:00,
2013-07-24 23:27:00,62.9,58.3,30.07,NE,54,0.0,1.0,85,0.00,,CLR,0.00,0.00,VWS V14.01,2013-07-25 04:27:00,
2013-07-24 23:32:00,62.2,58.0,30.07,NE,54,0.0,0.0,86,0.00,,CLR,0.00,0.00,VWS V14.01,2013-07-25 04:32:00,
2013-07-24 23:37:00,62.1,58.5,30.07,NE,54,1.0,1.0,88,0.00,,CLR,0.00,0.00,VWS V14.01,2013-07-25 04:37:00,
2013-07-24 23:42:00,62.5,58.9,30.07,NE,54,0.0,1.0,88,0.00,,CLR,0.00,0.00,VWS V14.01,2013-07-25 04:42:00,
2013-07-24 23:47:00,63.0,59.1,30.07,NE,54,1.0,1.0,87,0.00,,CLR,0.00,0.00,VWS V14.01,2013-07-25 04:47:00,
2013-07-24 23:52:00,63.1,58.8,30.07,NE,54,0.0,0.0,86,0.00,,CLR,0.00,0.00,VWS V14.01,2013-07-25 04:52:00,
2013-07-24 23:57:00,63.1,58.8,30.08,NE,54,0.0,0.0,86,0.00,,CLR,0.00,0.00,VWS V14.01,2013-07-25 04:57:00,